Time;durP1;ratioP1;P1;durP2;ratioP2;P2;SDS_P1;SDS_P2;PMS_P1;PMS_P2;Temp;Humidity;BMP_temperature;BMP_pressure;BME280_temperature;BME280_humidity;BME280_pressure;Samples;Min_cycle;Max_cycle;Signal;HPM_P1;HPM_P2
2023/08/25 00:01:10;;;;;;;;;;;;;;;19.01;100.00;100936.50;4979910;28;19997;-72
2023/08/25 00:03:36;;;;;;;;;;;;;;;19.01;100.00;100940.09;4997003;28;19924;-73
2023/08/25 00:06:01;;;;;;;;;;;;;;;19.00;100.00;100942.97;5010275;28;20308;-73
2023/08/25 00:08:27;;;;;;;;;;;;;;;18.92;100.00;100943.78;4989823;28;20459;-73
2023/08/25 00:10:52;;;;;;;;;;;;;;;18.94;100.00;100936.31;4977277;28;20015;-73
2023/08/25 00:13:17;;;;;;;;;;;;;;;18.99;100.00;100928.53;4976893;28;20314;-73
2023/08/25 00:15:44;;;;;;;;;;;;;;;18.91;100.00;100936.66;5000322;28;20004;-73
2023/08/25 00:18:09;;;;;;;;;;;;;;;18.82;100.00;100935.81;4985606;28;20000;-73
2023/08/25 00:20:36;;;;;;;;;;;;;;;18.77;100.00;100934.66;4982498;28;20352;-73
2023/08/25 00:23:02;;;;;;;;;;;;;;;18.77;100.00;100946.34;5006489;28;19925;-73
2023/08/25 00:25:27;;;;;;;;;;;;;;;18.78;100.00;100947.22;5010304;28;19925;-73
2023/08/25 00:27:52;;;;;;;;;;;;;;;18.72;100.00;100955.03;4993005;28;19979;-73
2023/08/25 00:30:18;;;;;;;;;;;;;;;18.68;100.00;100950.09;4996226;28;19917;-73
2023/08/25 00:32:43;;;;;;;;;;;;;;;18.67;100.00;100951.97;4976873;28;19917;-73
2023/08/25 00:35:08;;;;;;;;;;;;;;;18.68;100.00;100950.97;5012313;28;20307;-73
2023/08/25 00:37:33;;;;;;;;;;;;;;;18.63;100.00;100939.72;4980092;28;20619;-73
2023/08/25 00:39:59;;;;;;;;;;;;;;;18.52;100.00;100945.53;4996164;28;19968;-73
2023/08/25 00:42:24;;;;;;;;;;;;;;;18.49;100.00;100949.41;4994306;28;19936;-73
2023/08/25 00:44:49;;;;;;;;;;;;;;;18.40;100.00;100956.72;4998970;28;19963;-73
2023/08/25 00:47:14;;;;;;;;;;;;;;;18.29;100.00;100949.75;4980401;28;20020;-73
2023/08/25 00:49:40;;;;;;;;;;;;;;;18.23;100.00;100950.41;5000501;28;19927;-73
2023/08/25 00:52:05;;;;;;;;;;;;;;;18.20;100.00;100956.19;4995031;28;19947;-73
2023/08/25 00:54:30;;;;;;;;;;;;;;;17.99;100.00;100946.63;4992753;28;19922;-73
2023/08/25 00:56:55;;;;;;;;;;;;;;;17.93;100.00;100938.28;4984644;28;19930;-73
2023/08/25 00:59:20;;;;;;;;;;;;;;;17.89;100.00;100945.88;4995178;28;19921;-73
2023/08/25 01:01:46;;;;;;;;;;;;;;;17.82;100.00;100942.16;4997581;28;20217;-73
2023/08/25 01:04:12;;;;;;;;;;;;;;;17.75;100.00;100941.94;5017243;28;19928;-73
2023/08/25 01:06:37;;;;;;;;;;;;;;;17.67;100.00;100933.78;4995581;28;19920;-73
2023/08/25 01:09:04;;;;;;;;;;;;;;;17.67;100.00;100933.78;4981856;28;20367;-73
2023/08/25 01:11:29;;;;;;;;;;;;;;;17.73;100.00;100924.13;4982686;28;19948;-73
2023/08/25 01:13:57;;;;;;;;;;;;;;;17.77;100.00;100929.03;4997575;28;20367;-73
2023/08/25 01:16:24;;;;;;;;;;;;;;;17.79;100.00;100923.47;5011893;28;19921;-73
2023/08/25 01:18:49;;;;;;;;;;;;;;;17.86;100.00;100929.06;5013518;28;20308;-73
2023/08/25 01:21:14;;;;;;;;;;;;;;;17.88;100.00;100930.59;4996123;28;19979;-73
2023/08/25 01:23:55;;;;;;;;;;;;;;;17.88;100.00;100935.19;5010205;28;20000;-73
2023/08/25 01:26:21;;;;;;;;;;;;;;;17.69;100.00;100915.47;4997746;28;19921;-73
2023/08/25 01:28:48;;;;;;;;;;;;;;;17.67;100.00;100922.91;4999181;28;19928;-73
2023/08/25 01:31:14;;;;;;;;;;;;;;;17.62;100.00;100920.66;5000001;28;19935;-73
2023/08/25 01:33:44;;;;;;;;;;;;;;;17.60;100.00;100917.31;4983799;28;19921;-73
2023/08/25 01:36:18;;;;;;;;;;;;;;;17.46;100.00;100916.06;5014361;28;19921;-73
2023/08/25 01:38:47;;;;;;;;;;;;;;;17.45;100.00;100913.50;5015955;28;19921;-73
2023/08/25 01:41:41;;;;;;;;;;;;;;;17.42;100.00;100913.81;4978166;28;20031;-73
2023/08/25 01:44:07;;;;;;;;;;;;;;;17.33;100.00;100904.78;4981222;28;20299;-73
2023/08/25 01:46:33;;;;;;;;;;;;;;;17.26;100.00;100917.28;4999737;28;20386;-73
2023/08/25 01:48:58;;;;;;;;;;;;;;;17.24;100.00;100909.31;4980142;28;20036;-73
2023/08/25 01:51:23;;;;;;;;;;;;;;;17.23;100.00;100919.31;4994758;28;20702;-73
2023/08/25 01:53:53;;;;;;;;;;;;;;;17.20;100.00;100916.09;5001878;28;20385;-73
2023/08/25 01:56:18;;;;;;;;;;;;;;;17.14;100.00;100904.03;5004608;28;19925;-73
2023/08/25 01:58:44;;;;;;;;;;;;;;;17.22;100.00;100911.34;4971125;28;19978;-73
2023/08/25 02:01:09;;;;;;;;;;;;;;;17.34;100.00;100915.50;4971622;28;20079;-73
2023/08/25 02:03:34;;;;;;;;;;;;;;;17.47;100.00;100916.88;4990421;28;19925;-73
2023/08/25 02:06:00;;;;;;;;;;;;;;;17.53;100.00;100918.97;4997160;28;20379;-73
2023/08/25 02:08:25;;;;;;;;;;;;;;;17.46;100.00;100894.34;4998154;28;20372;-73
2023/08/25 02:10:51;;;;;;;;;;;;;;;17.57;100.00;100912.19;4998346;28;19972;-74
2023/08/25 02:13:16;;;;;;;;;;;;;;;17.56;100.00;100906.91;4981456;28;19921;-73
2023/08/25 02:15:43;;;;;;;;;;;;;;;17.57;100.00;100909.47;5001347;28;19959;-73
2023/08/25 02:18:08;;;;;;;;;;;;;;;17.61;100.00;100913.53;4983465;28;20315;-73
2023/08/25 02:20:35;;;;;;;;;;;;;;;17.68;100.00;100906.44;4997530;28;19925;-73
2023/08/25 02:23:01;;;;;;;;;;;;;;;17.75;100.00;100900.38;4988573;28;20216;-73
2023/08/25 02:25:26;;;;;;;;;;;;;;;17.79;100.00;100888.16;4989984;28;19973;-73
2023/08/25 02:27:51;;;;;;;;;;;;;;;17.84;100.00;100885.81;4987500;28;19971;-73
2023/08/25 02:30:16;;;;;;;;;;;;;;;17.89;100.00;100882.56;4988888;28;20047;-73
2023/08/25 02:32:42;;;;;;;;;;;;;;;17.92;100.00;100885.78;5007412;28;19921;-73
2023/08/25 02:35:07;;;;;;;;;;;;;;;17.91;100.00;100886.81;4989407;28;19925;-73
2023/08/25 02:37:32;;;;;;;;;;;;;;;17.88;100.00;100884.44;5002310;28;19936;-73
2023/08/25 02:39:58;;;;;;;;;;;;;;;17.89;100.00;100880.69;4988843;28;20032;-73
2023/08/25 02:42:23;;;;;;;;;;;;;;;17.92;100.00;100877.66;4988477;28;20389;-72
2023/08/25 02:44:48;;;;;;;;;;;;;;;17.96;100.00;100881.75;4970652;28;20370;-73
2023/08/25 02:47:13;;;;;;;;;;;;;;;18.01;100.00;100880.41;4972046;28;20271;-72
2023/08/25 02:49:39;;;;;;;;;;;;;;;18.05;100.00;100879.06;4988526;28;19920;-73
2023/08/25 02:52:07;;;;;;;;;;;;;;;18.07;100.00;100877.88;4974597;28;19925;-73
2023/08/25 02:54:32;;;;;;;;;;;;;;;18.11;100.00;100868.38;4989059;28;20350;-73
2023/08/25 02:56:58;;;;;;;;;;;;;;;18.12;100.00;100870.06;4987965;28;20524;-73
2023/08/25 02:59:23;;;;;;;;;;;;;;;18.16;100.00;100865.16;4969249;28;19963;-73
2023/08/25 03:01:48;;;;;;;;;;;;;;;18.16;100.00;100867.03;5004016;28;20379;-73
2023/08/25 03:04:13;;;;;;;;;;;;;;;18.16;100.00;100858.88;5000871;28;19924;-73
2023/08/25 03:06:39;;;;;;;;;;;;;;;18.17;100.00;100852.44;4978717;28;19920;-73
2023/08/25 03:09:04;;;;;;;;;;;;;;;18.20;100.00;100850.19;4998183;28;19928;-73
2023/08/25 03:11:30;;;;;;;;;;;;;;;18.21;100.00;100846.47;4997156;28;19932;-73
2023/08/25 03:13:55;;;;;;;;;;;;;;;18.26;100.00;100844.09;4998427;28;20268;-73
2023/08/25 03:16:20;;;;;;;;;;;;;;;18.27;100.00;100840.38;5013193;28;20295;-73
2023/08/25 03:18:45;;;;;;;;;;;;;;;18.31;100.00;100842.75;4991656;28;19987;-73
2023/08/25 03:21:11;;;;;;;;;;;;;;;18.31;100.00;100846.28;4979571;28;20296;-73
2023/08/25 03:23:36;;;;;;;;;;;;;;;18.28;100.00;100835.75;5010258;28;19921;-73
2023/08/25 03:26:02;;;;;;;;;;;;;;;18.27;100.00;100840.38;5012797;28;19972;-73
2023/08/25 03:28:27;;;;;;;;;;;;;;;18.25;100.00;100831.53;4995209;28;19924;-73
2023/08/25 03:30:53;;;;;;;;;;;;;;;18.24;100.00;100829.00;4998412;28;19928;-73
2023/08/25 03:33:18;;;;;;;;;;;;;;;18.24;100.00;100829.81;4991054;28;19975;-73
2023/08/25 03:35:43;;;;;;;;;;;;;;;18.29;100.00;100821.16;4996705;28;19921;-73
2023/08/25 03:38:08;;;;;;;;;;;;;;;18.33;100.00;100813.53;4994381;28;20383;-74
2023/08/25 03:40:34;;;;;;;;;;;;;;;18.37;100.00;100817.59;4972355;28;19921;-73
2023/08/25 03:42:59;;;;;;;;;;;;;;;18.43;100.00;100819.63;4986138;28;19995;-73
2023/08/25 03:45:24;;;;;;;;;;;;;;;18.49;100.00;100812.66;4986595;28;20311;-73
2023/08/25 03:47:49;;;;;;;;;;;;;;;18.48;100.00;100809.06;4986994;28;19968;-73
2023/08/25 03:50:14;;;;;;;;;;;;;;;18.47;100.00;100804.66;4986685;28;19921;-73
2023/08/25 03:52:40;;;;;;;;;;;;;;;18.50;100.00;100811.63;4986592;28;19917;-73
2023/08/25 03:55:05;;;;;;;;;;;;;;;18.51;100.00;100808.72;4987484;28;19921;-73
2023/08/25 03:57:30;;;;;;;;;;;;;;;18.36;100.00;100786.84;4986166;28;21277;-73
2023/08/25 03:59:55;;;;;;;;;;;;;;;18.53;100.00;100803.16;5002757;28;19948;-73
2023/08/25 04:02:21;;;;;;;;;;;;;;;18.52;100.00;100799.56;4971812;28;19928;-73
2023/08/25 04:04:46;;;;;;;;;;;;;;;18.50;100.00;100800.78;4985770;28;20437;-73
2023/08/25 04:07:13;;;;;;;;;;;;;;;18.52;100.00;100804.16;4992718;28;20412;-73
2023/08/25 04:09:38;;;;;;;;;;;;;;;18.54;100.00;100797.53;4990612;28;19990;-73
2023/08/25 04:12:03;;;;;;;;;;;;;;;18.57;100.00;100796.31;5011087;28;19928;-73
2023/08/25 04:14:28;;;;;;;;;;;;;;;18.60;100.00;100801.41;4991617;28;19921;-73
2023/08/25 04:16:54;;;;;;;;;;;;;;;18.59;100.00;100791.56;4989247;28;19965;-73
2023/08/25 04:19:21;;;;;;;;;;;;;;;18.61;100.00;100794.13;4989753;28;20038;-73
2023/08/25 04:21:46;;;;;;;;;;;;;;;18.60;100.00;100795.97;4989880;28;19936;-73
2023/08/25 04:24:11;;;;;;;;;;;;;;;18.58;100.00;100798.88;5013633;28;19957;-73
2023/08/25 04:26:36;;;;;;;;;;;;;;;18.48;100.00;100806.34;4973605;28;20181;-73
2023/08/25 04:29:02;;;;;;;;;;;;;;;18.50;100.00;100801.59;4991650;28;19925;-73
2023/08/25 04:31:27;;;;;;;;;;;;;;;18.53;100.00;100795.81;5007049;28;19971;-73
2023/08/25 04:33:52;;;;;;;;;;;;;;;18.57;100.00;100793.59;4994019;28;19995;-73
2023/08/25 04:36:17;;;;;;;;;;;;;;;18.58;100.00;100785.28;5011525;28;19925;-73
2023/08/25 04:38:42;;;;;;;;;;;;;;;18.63;100.00;100798.34;4977025;28;19931;-73
2023/08/25 04:41:08;;;;;;;;;;;;;;;18.69;100.00;100799.50;4981357;28;19936;-73
2023/08/25 04:43:33;;;;;;;;;;;;;;;18.69;100.00;100785.91;5013894;28;20359;-73
2023/08/25 04:45:58;;;;;;;;;;;;;;;18.67;100.00;100794.25;5010432;28;20705;-73
2023/08/25 04:48:23;;;;;;;;;;;;;;;18.67;100.00;100793.44;5013681;28;20436;-74
2023/08/25 04:50:49;;;;;;;;;;;;;;;18.64;100.00;100791.88;4993738;28;20359;-74
2023/08/25 04:53:14;;;;;;;;;;;;;;;18.59;100.00;100786.97;4989453;28;20700;-74
2023/08/25 04:55:39;;;;;;;;;;;;;;;18.53;100.00;100790.38;4991799;28;19925;-74
2023/08/25 04:58:04;;;;;;;;;;;;;;;18.49;100.00;100793.63;5010547;28;19952;-74
2023/08/25 05:00:29;;;;;;;;;;;;;;;18.36;100.00;100797.72;5009493;28;20028;-74
2023/08/25 05:02:55;;;;;;;;;;;;;;;18.33;100.00;100799.94;5008655;28;19979;-74
2023/08/25 05:05:20;;;;;;;;;;;;;;;18.33;100.00;100797.22;4995674;28;19949;-74
2023/08/25 05:07:45;;;;;;;;;;;;;;;18.36;100.00;100789.56;4997410;28;20032;-73
2023/08/25 05:10:10;;;;;;;;;;;;;;;18.43;100.00;100797.88;4999411;28;19943;-73
2023/08/25 05:12:37;;;;;;;;;;;;;;;18.51;100.00;100789.72;4995444;28;19929;-73
2023/08/25 05:15:02;;;;;;;;;;;;;;;18.58;100.00;100796.16;4973783;28;19931;-73
2023/08/25 05:17:28;;;;;;;;;;;;;;;18.67;100.00;100780.66;5005369;28;19925;-74
2023/08/25 05:19:53;;;;;;;;;;;;;;;18.76;100.00;100772.50;5009954;28;20004;-73
2023/08/25 05:22:18;;;;;;;;;;;;;;;18.76;100.00;100775.22;4974844;28;20497;-74
2023/08/25 05:24:44;;;;;;;;;;;;;;;18.74;100.00;100784.38;4977365;28;20352;-74
2023/08/25 05:27:09;;;;;;;;;;;;;;;18.78;100.00;100775.88;4977375;28;19924;-74
2023/08/25 05:29:34;;;;;;;;;;;;;;;18.78;100.00;100771.28;4998912;28;19928;-74
2023/08/25 05:31:59;;;;;;;;;;;;;;;18.72;100.00;100763.81;4981371;28;19960;-74
2023/08/25 05:34:25;;;;;;;;;;;;;;;18.83;100.00;100774.31;5017190;28;20591;-74
2023/08/25 05:36:50;;;;;;;;;;;;;;;18.86;100.00;100770.41;4996626;28;20497;-74
2023/08/25 05:39:18;;;;;;;;;;;;;;;18.88;100.00;100763.78;4986357;28;20422;-74
2023/08/25 05:41:43;;;;;;;;;;;;;;;18.88;100.00;100758.34;4975487;28;19972;-74
2023/08/25 05:44:08;;;;;;;;;;;;;;;18.87;100.00;100764.78;4979447;28;19921;-75
2023/08/25 05:46:34;;;;;;;;;;;;;;;18.98;100.00;100765.44;4983327;28;20034;-74
2023/08/25 05:48:59;;;;;;;;;;;;;;;19.05;100.00;100762.88;4983651;28;20382;-74
2023/08/25 05:51:24;;;;;;;;;;;;;;;18.96;100.00;100768.34;5010268;28;19928;-74
2023/08/25 05:53:49;;;;;;;;;;;;;;;18.98;100.00;100776.31;5012273;28;19932;-74
2023/08/25 05:56:15;;;;;;;;;;;;;;;19.00;100.00;100761.53;4995756;28;20035;-74
2023/08/25 05:58:43;;;;;;;;;;;;;;;18.97;100.00;100761.88;4997056;28;19917;-74
2023/08/25 06:01:09;;;;;;;;;;;;;;;18.96;100.00;100772.94;5010165;28;20263;-75
2023/08/25 06:03:34;;;;;;;;;;;;;;;18.93;100.00;100759.69;5013068;28;19920;-75
2023/08/25 06:05:59;;;;;;;;;;;;;;;18.92;100.00;100761.53;5015076;28;19927;-75
2023/08/25 06:08:24;;;;;;;;;;;;;;;18.97;100.00;100758.31;4995404;28;20552;-74
2023/08/25 06:10:52;;;;;;;;;;;;;;;19.03;100.00;100763.03;4983117;28;19959;-74
2023/08/25 06:13:17;;;;;;;;;;;;;;;19.07;100.00;100763.56;5000959;28;19918;-74
2023/08/25 06:15:42;;;;;;;;;;;;;;;19.08;100.00;100763.38;4999582;28;20253;-75
2023/08/25 06:18:07;;;;;;;;;;;;;;;19.08;100.00;100754.34;4983291;28;19925;-75
2023/08/25 06:20:33;;;;;;;;;;;;;;;19.06;100.00;100764.59;5014829;28;19964;-75
2023/08/25 06:22:58;;;;;;;;;;;;;;;19.01;100.00;100770.53;4995369;28;20051;-74
2023/08/25 06:25:23;;;;;;;;;;;;;;;18.95;100.00;100782.97;5001034;28;19943;-75
2023/08/25 06:27:48;;;;;;;;;;;;;;;18.91;100.00;100784.31;4978299;28;20084;-74
2023/08/25 06:30:14;;;;;;;;;;;;;;;18.86;100.00;100790.28;4978418;28;19975;-75
2023/08/25 06:32:39;;;;;;;;;;;;;;;18.89;100.00;100783.66;4975055;28;19960;-75
2023/08/25 06:35:05;;;;;;;;;;;;;;;18.84;100.00;100792.34;4995922;28;20400;-75
2023/08/25 06:37:30;;;;;;;;;;;;;;;18.89;100.00;100798.13;4995113;28;19921;-75
2023/08/25 06:39:56;;;;;;;;;;;;;;;18.90;100.00;100804.38;4996700;28;19924;-75
2023/08/25 06:42:21;;;;;;;;;;;;;;;18.86;100.00;100795.75;4996471;28;19936;-76
2023/08/25 06:44:46;;;;;;;;;;;;;;;18.79;100.00;100791.19;4994711;28;19921;-75
2023/08/25 06:47:11;;;;;;;;;;;;;;;18.80;100.00;100799.16;4979239;28;19917;-76
2023/08/25 06:49:37;;;;;;;;;;;;;;;18.79;100.00;100796.63;4982485;28;19936;-75
2023/08/25 06:52:02;;;;;;;;;;;;;;;18.84;100.00;100778.75;4996017;28;20380;-75
2023/08/25 06:54:27;;;;;;;;;;;;;;;18.89;100.00;100770.03;4976452;28;20403;-75
2023/08/25 06:56:52;;;;;;;;;;;;;;;18.92;100.00;100775.13;5014666;28;19921;-74
2023/08/25 06:59:18;;;;;;;;;;;;;;;18.90;100.00;100774.47;5013072;28;19921;-74
2023/08/25 07:01:43;;;;;;;;;;;;;;;18.77;100.00;100755.97;5000823;28;20363;-75
2023/08/25 07:04:08;;;;;;;;;;;;;;;18.93;100.00;100767.84;5015394;28;20430;-74
2023/08/25 07:06:36;;;;;;;;;;;;;;;18.89;100.00;100779.06;5015093;28;20043;-75
2023/08/25 07:09:01;;;;;;;;;;;;;;;18.82;100.00;100760.88;4996583;28;19925;-75
2023/08/25 07:11:26;;;;;;;;;;;;;;;18.80;100.00;100762.97;4997232;28;19921;-74
2023/08/25 07:13:52;;;;;;;;;;;;;;;18.83;100.00;100768.03;4979304;28;20307;-73
2023/08/25 07:16:17;;;;;;;;;;;;;;;18.77;100.00;100723.34;4980391;28;20352;-73
2023/08/25 07:18:42;;;;;;;;;;;;;;;19.01;100.00;100714.28;4995391;28;20383;-73
2023/08/25 07:21:08;;;;;;;;;;;;;;;19.02;100.00;100699.63;4995165;28;20423;-73
2023/08/25 07:23:33;;;;;;;;;;;;;;;19.02;100.00;100696.06;4997399;28;20584;-73
2023/08/25 07:26:00;;;;;;;;;;;;;;;19.03;100.00;100714.94;4993305;28;20939;-73
2023/08/25 07:28:26;;;;;;;;;;;;;;;18.97;100.00;100728.38;4996028;28;20407;-73
2023/08/25 07:30:51;;;;;;;;;;;;;;;18.96;100.00;100737.56;4997600;28;19991;-73
2023/08/25 07:33:17;;;;;;;;;;;;;;;18.96;100.00;100737.56;4995098;28;20004;-73
2023/08/25 07:35:42;;;;;;;;;;;;;;;18.93;100.00;100736.03;4998480;28;20380;-74
2023/08/25 07:38:09;;;;;;;;;;;;;;;19.01;100.00;100735.16;5013563;28;19921;-73
2023/08/25 07:40:34;;;;;;;;;;;;;;;18.93;100.00;100740.63;5010271;28;20006;-74
2023/08/25 07:43:01;;;;;;;;;;;;;;;18.97;100.00;100739.25;5010457;28;19924;-74
2023/08/25 07:45:26;;;;;;;;;;;;;;;18.98;100.00;100738.25;4974868;28;19921;-74
2023/08/25 07:47:52;;;;;;;;;;;;;;;18.93;100.00;100725.16;4991158;28;19928;-74
2023/08/25 07:50:17;;;;;;;;;;;;;;;18.89;100.00;100730.09;5010151;28;20128;-74
2023/08/25 07:52:42;;;;;;;;;;;;;;;18.74;100.00;100753.63;4978480;28;20397;-76
2023/08/25 07:55:08;;;;;;;;;;;;;;;18.58;100.00;100771.69;4989227;28;19944;-74
2023/08/25 07:57:34;;;;;;;;;;;;;;;18.57;100.00;100758.25;4992133;28;19974;-70
2023/08/25 07:59:59;;;;;;;;;;;;;;;18.58;100.00;100759.94;5012077;28;20371;-73
2023/08/25 08:02:25;;;;;;;;;;;;;;;18.47;100.00;100749.47;5007628;28;20683;-73
2023/08/25 08:04:51;;;;;;;;;;;;;;;18.58;100.00;100762.66;5009296;28;20008;-72
2023/08/25 08:07:16;;;;;;;;;;;;;;;18.58;100.00;100765.38;4993812;28;19921;-73
2023/08/25 08:09:41;;;;;;;;;;;;;;;18.56;100.00;100784.59;4995681;28;20667;-74
2023/08/25 08:12:06;;;;;;;;;;;;;;;18.62;100.00;100788.50;4992399;28;19921;-74
2023/08/25 08:14:35;;;;;;;;;;;;;;;18.58;100.00;100790.72;5009447;28;19987;-72
2023/08/25 08:17:00;;;;;;;;;;;;;;;18.57;100.00;100802.63;4978227;28;19917;-70
2023/08/25 08:19:26;;;;;;;;;;;;;;;18.55;100.00;100803.78;5013936;28;19924;-75
2023/08/25 08:21:51;;;;;;;;;;;;;;;18.56;100.00;100811.78;5012209;28;20052;-71
2023/08/25 08:24:16;;;;;;;;;;;;;;;18.52;100.00;100813.16;5014056;28;20458;-71
2023/08/25 08:26:41;;;;;;;;;;;;;;;18.52;100.00;100815.03;5011236;28;19921;-74
2023/08/25 08:29:06;;;;;;;;;;;;;;;18.55;100.00;100812.81;5010492;28;20355;-72
2023/08/25 08:31:32;;;;;;;;;;;;;;;18.52;100.00;100812.31;5009678;28;19921;-74
2023/08/25 08:33:57;;;;;;;;;;;;;;;18.59;100.00;100802.44;5011083;28;19927;-74
2023/08/25 08:36:23;;;;;;;;;;;;;;;18.63;100.00;100800.22;4992684;28;20058;-75
2023/08/25 08:38:48;;;;;;;;;;;;;;;18.68;100.00;100803.25;4981140;28;19925;-73
2023/08/25 08:41:15;;;;;;;;;;;;;;;18.66;100.00;100784.41;4995892;28;19928;-74
2023/08/25 08:43:41;;;;;;;;;;;;;;;18.63;100.00;100795.63;5016421;28;19921;-73
2023/08/25 08:46:06;;;;;;;;;;;;;;;18.64;100.00;100793.78;5012058;28;19944;-73
2023/08/25 08:48:32;;;;;;;;;;;;;;;18.68;100.00;100784.22;5011789;28;20375;-72
2023/08/25 08:50:58;;;;;;;;;;;;;;;18.65;100.00;100801.75;4992777;28;19960;-73
2023/08/25 08:53:24;;;;;;;;;;;;;;;18.68;100.00;100789.66;5010964;28;19967;-73
2023/08/25 08:55:49;;;;;;;;;;;;;;;18.69;100.00;100786.78;5012527;28;20429;-72
2023/08/25 08:58:15;;;;;;;;;;;;;;;18.66;100.00;100783.56;4996863;28;19925;-73
2023/08/25 09:00:40;;;;;;;;;;;;;;;18.57;100.00;100789.03;4997142;28;19960;-73
2023/08/25 09:03:07;;;;;;;;;;;;;;;18.52;100.00;100796.00;4999876;28;19966;-74
2023/08/25 09:05:34;;;;;;;;;;;;;;;18.51;100.00;100800.59;5014983;28;19928;-74
2023/08/25 09:08:01;;;;;;;;;;;;;;;18.50;100.00;100798.88;5013658;28;20356;-73
2023/08/25 09:10:26;;;;;;;;;;;;;;;18.51;100.00;100797.03;4999116;28;19925;-75
2023/08/25 09:12:51;;;;;;;;;;;;;;;18.43;100.00;100795.16;5018176;28;19931;-71
2023/08/25 09:15:27;;;;;;;;;;;;;;;18.47;100.00;100804.66;5001055;28;19922;-75
2023/08/25 09:17:53;;;;;;;;;;;;;;;18.43;100.00;100806.88;4982958;28;19975;-72
2023/08/25 09:20:18;;;;;;;;;;;;;;;18.41;100.00;100806.22;5013484;28;19931;-70
2023/08/25 09:22:47;;;;;;;;;;;;;;;18.32;100.00;100814.53;5015343;28;19969;-72
2023/08/25 09:25:12;;;;;;;;;;;;;;;18.33;100.00;100806.22;4984201;28;19921;-75
2023/08/25 09:27:37;;;;;;;;;;;;;;;18.36;100.00;100792.28;4982436;28;20330;-71
2023/08/25 09:30:06;;;;;;;;;;;;;;;18.42;100.00;100791.59;5002207;28;20456;-74
2023/08/25 09:32:32;;;;;;;;;;;;;;;18.44;100.00;100796.84;5011954;28;19979;-74
2023/08/25 09:35:11;;;;;;;;;;;;;;;18.43;100.00;100797.88;5000248;28;20008;-73
2023/08/25 09:37:42;;;;;;;;;;;;;;;18.39;100.00;100791.09;4999573;28;19982;-74
2023/08/25 09:40:12;;;;;;;;;;;;;;;18.48;100.00;100787.34;4997682;28;19928;-74
2023/08/25 09:42:37;;;;;;;;;;;;;;;18.53;100.00;100784.94;5013712;28;20442;-75
2023/08/25 09:45:02;;;;;;;;;;;;;;;18.60;100.00;100785.09;4993879;28;19921;-74
2023/08/25 09:47:28;;;;;;;;;;;;;;;18.74;100.00;100762.63;4995750;28;19927;-73
2023/08/25 09:49:53;;;;;;;;;;;;;;;18.96;100.00;100745.72;4995596;28;19925;-74
2023/08/25 09:52:18;;;;;;;;;;;;;;;19.11;100.00;100740.38;4998565;28;19921;-73
2023/08/25 09:54:43;;;;;;;;;;;;;;;19.18;100.00;100771.31;4999989;28;19921;-73
2023/08/25 09:57:09;;;;;;;;;;;;;;;19.27;100.00;100783.84;4997168;28;19983;-73
2023/08/25 09:59:34;;;;;;;;;;;;;;;19.35;100.00;100780.22;4994776;28;19927;-74
2023/08/25 10:01:59;;;;;;;;;;;;;;;19.48;100.00;100783.19;5013006;28;19967;-74
2023/08/25 10:04:24;;;;;;;;;;;;;;;19.64;100.00;100765.06;4981076;28;20031;-74
2023/08/25 10:06:49;;;;;;;;;;;;;;;19.85;100.00;100763.56;4993885;28;20012;-74
2023/08/25 10:09:15;;;;;;;;;;;;;;;19.69;100.00;100768.13;4982147;28;19929;-74
2023/08/25 10:11:41;;;;;;;;;;;;;;;19.64;100.00;100774.06;4995627;28;20011;-74
2023/08/25 10:14:08;;;;;;;;;;;;;;;19.52;100.00;100780.13;5014022;28;19963;-74
2023/08/25 10:16:52;;;;;;;;;;;;;;;19.57;100.00;100784.03;4998007;28;20001;-75
2023/08/25 10:19:21;;;;;;;;;;;;;;;19.63;100.00;100780.56;5011664;28;20256;-75
2023/08/25 10:21:48;;;;;;;;;;;;;;;19.82;100.00;100772.09;4995851;28;20291;-74
2023/08/25 10:24:17;;;;;;;;;;;;;;;19.95;100.00;100780.53;4996567;28;19927;-70
2023/08/25 10:26:42;;;;;;;;;;;;;;;19.97;100.00;100780.34;4997809;28;19928;-78
2023/08/25 10:29:08;;;;;;;;;;;;;;;19.83;100.00;100784.69;4980676;28;19917;-75
2023/08/25 10:31:33;;;;;;;;;;;;;;;19.75;100.00;100775.53;4996861;28;20040;-75
2023/08/25 10:33:59;;;;;;;;;;;;;;;19.68;100.00;100799.09;5012221;28;19983;-75
2023/08/25 10:36:25;;;;;;;;;;;;;;;19.66;100.00;100800.28;4995155;28;19920;-76
2023/08/25 10:38:59;;;;;;;;;;;;;;;19.59;100.00;100789.28;4994556;28;19952;-76
2023/08/25 10:41:24;;;;;;;;;;;;;;;19.67;100.00;100789.22;5011364;28;19960;-75
2023/08/25 10:43:50;;;;;;;;;;;;;;;19.71;100.00;100790.56;5000110;28;20023;-76
2023/08/25 10:46:17;;;;;;;;;;;;;;;20.08;100.00;100788.09;5000100;28;20054;-75
2023/08/25 10:48:42;;;;;;;;;;;;;;;20.02;100.00;100797.81;4981861;28;19921;-75
2023/08/25 10:51:11;;;;;;;;;;;;;;;19.91;100.00;100795.56;4998386;28;19928;-75
2023/08/25 10:53:44;;;;;;;;;;;;;;;19.65;100.00;100794.00;5012460;28;19927;-73
2023/08/25 10:56:19;;;;;;;;;;;;;;;19.54;100.00;100797.13;5014344;28;20770;-75
2023/08/25 10:58:57;;;;;;;;;;;;;;;19.44;100.00;100789.19;5012858;28;19920;-75
2023/08/25 11:01:23;;;;;;;;;;;;;;;19.48;100.00;100794.09;4991782;28;19925;-75
2023/08/25 11:04:07;;;;;;;;;;;;;;;19.39;100.00;100797.03;4995807;28;19928;-75
2023/08/25 11:06:39;;;;;;;;;;;;;;;19.30;100.00;100801.69;5011008;28;20023;-75
2023/08/25 11:09:04;;;;;;;;;;;;;;;19.15;100.00;100802.47;5013380;28;20384;-77
2023/08/25 11:11:30;;;;;;;;;;;;;;;19.29;100.00;100813.59;4997709;28;20399;-76
2023/08/25 11:13:56;;;;;;;;;;;;;;;19.25;100.00;100804.97;4978732;28;19921;-76
2023/08/25 11:16:21;;;;;;;;;;;;;;;19.19;100.00;100800.22;4995884;28;19924;-75
2023/08/25 11:18:46;;;;;;;;;;;;;;;19.18;100.00;100793.94;4991695;28;20691;-74
2023/08/25 11:21:11;;;;;;;;;;;;;;;19.26;100.00;100800.34;5010818;28;20398;-75
2023/08/25 11:23:40;;;;;;;;;;;;;;;19.33;100.00;100796.72;4977967;28;20056;-76
2023/08/25 11:26:07;;;;;;;;;;;;;;;19.36;100.00;100792.81;4993393;28;20015;-75
2023/08/25 11:28:32;;;;;;;;;;;;;;;19.34;100.00;100803.03;4977912;28;19931;-75
2023/08/25 11:30:57;;;;;;;;;;;;;;;19.30;100.00;100788.09;4975060;28;19921;-74
2023/08/25 11:33:24;;;;;;;;;;;;;;;19.37;100.00;100789.06;4979203;28;19921;-75
2023/08/25 11:35:49;;;;;;;;;;;;;;;19.38;100.00;100787.19;4974581;28;20015;-71
2023/08/25 11:38:14;;;;;;;;;;;;;;;19.40;100.00;100772.38;4991509;28;19925;-77
2023/08/25 11:40:40;;;;;;;;;;;;;;;19.34;100.00;100782.09;4990956;28;19959;-76
2023/08/25 11:43:05;;;;;;;;;;;;;;;19.37;100.00;100783.63;4992113;28;19931;-75
2023/08/25 11:45:31;;;;;;;;;;;;;;;19.34;100.00;100784.81;4991577;28;19947;-75
2023/08/25 11:47:56;;;;;;;;;;;;;;;19.31;100.00;100789.78;4994093;28;20020;-75
2023/08/25 11:50:21;;;;;;;;;;;;;;;19.36;100.00;100783.78;4996611;28;19921;-75
2023/08/25 11:52:46;;;;;;;;;;;;;;;19.41;100.00;100781.38;4992017;28;19925;-75
2023/08/25 11:55:15;;;;;;;;;;;;;;;19.34;100.00;100792.97;4992099;28;20007;-75
2023/08/25 11:57:40;;;;;;;;;;;;;;;19.45;100.00;100788.16;4991726;28;19921;-76
2023/08/25 12:00:05;;;;;;;;;;;;;;;19.42;100.00;100799.41;4986518;28;19967;-76
2023/08/25 12:02:31;;;;;;;;;;;;;;;19.43;100.00;100795.66;4993596;28;20008;-75
2023/08/25 12:04:57;;;;;;;;;;;;;;;19.40;100.00;100809.63;4993713;28;20335;-76
2023/08/25 12:07:24;;;;;;;;;;;;;;;19.44;100.00;100806.41;5009284;28;19921;-75
2023/08/25 12:09:56;;;;;;;;;;;;;;;19.43;100.00;100814.72;4995881;28;19921;-75
2023/08/25 12:12:21;;;;;;;;;;;;;;;19.43;100.00;100812.88;5012874;28;19921;-76
2023/08/25 12:14:49;;;;;;;;;;;;;;;19.39;100.00;100802.50;4983277;28;19925;-75
2023/08/25 12:17:23;;;;;;;;;;;;;;;19.44;100.00;100800.94;4977048;28;19922;-75
2023/08/25 12:19:48;;;;;;;;;;;;;;;19.53;100.00;100795.44;4996686;28;20292;-77
2023/08/25 12:22:16;;;;;;;;;;;;;;;19.57;100.00;100791.34;4984651;28;19969;-75